WetterOnline ( https://www.wetteronline.de )

Wetter aktuell Oschatz

Aktuelles Wetter: Oschatz (152m)

6-stündlich | Neueste Meldungen
Ortszeit Temperatur Wetter
Mi, 22.01. 13:00 0.7° C bedeckt
Mi, 22.01. 7:00 -2.4° C leicht bewölkt
Mi, 22.01. 1:00 -0.4° C wolkig
Di, 21.01. 19:00 0.6° C wolkenlos
Di, 21.01. 13:00 4.1° C wolkenlos
Di, 21.01. 7:00 -1.9° C wolkenlos
Di, 21.01. 1:00 -2.3° C wolkenlos
Mo, 20.01. 19:00 -0.9° C wolkenlos
Ortszeit Temperatur Wetter
Mi, 22.01. 14:00 0.7° C bedeckt
Mi, 22.01. 13:50 0.7° C Sprühregen
Mi, 22.01. 13:40 0.6° C Sprühregen
Mi, 22.01. 13:30 0.7° C bedeckt
Mi, 22.01. 13:20 0.7° C bedeckt
Mi, 22.01. 13:10 0.8° C bedeckt
Mi, 22.01. 13:00 0.7° C bedeckt
Mi, 22.01. 12:30 0.5° C bedeckt
Mi, 22.01. 12:00 -0.1° C bewölkt
Mi, 22.01. 11:30 -0.3° C bedeckt
Mi, 22.01. 11:00 -0.4° C bedeckt
Ortszeit Relative Feuchte Sichtweite
Mi, 22.01. 13:00 96% 4.1 km
Mi, 22.01. 7:00 86% 22 km
Mi, 22.01. 1:00 84% 24 km
Di, 21.01. 19:00 86% 25 km
Di, 21.01. 13:00 67% 40 km
Di, 21.01. 7:00 89% 18 km
Di, 21.01. 1:00 94% 13 km
Mo, 20.01. 19:00 99% 2.5 km
Ortszeit Relative Feuchte Sichtweite
Mi, 22.01. 14:00 98% 1.0 km
Mi, 22.01. 13:50 98% -
Mi, 22.01. 13:40 98% -
Mi, 22.01. 13:30 96% 3.1 km
Mi, 22.01. 13:20 96% -
Mi, 22.01. 13:10 96% -
Mi, 22.01. 13:00 96% 4.1 km
Mi, 22.01. 12:30 98% 1.7 km
Mi, 22.01. 12:00 96% 2.8 km
Mi, 22.01. 11:30 94% 6 km
Mi, 22.01. 11:00 93% 6 km
Ortszeit Niederschlagsmenge Niederschlagsart
Mi, 22.01. 13:00 0.1 l/m2 in 6 Std. Sprühregen
Mi, 22.01. 7:00 0.0 l/m2 in 12 Std. -
Mi, 22.01. 1:00 0.0 l/m2 in 6 Std. -
Di, 21.01. 19:00 0.0 l/m2 in 12 Std. -
Di, 21.01. 13:00 0.0 l/m2 in 6 Std. -
Di, 21.01. 7:00 0.0 l/m2 in 12 Std. -
Di, 21.01. 1:00 0.0 l/m2 in 6 Std. -
Mo, 20.01. 19:00 0.0 l/m2 in 12 Std. -
Ortszeit Niederschlagsmenge Niederschlagsart
Mi, 22.01. 14:00 0.1 l/m2 in 1 Std. Sprühregen
Mi, 22.01. 13:50 keine Meldung -
Mi, 22.01. 13:40 keine Meldung -
Mi, 22.01. 13:30 0.0 l/m2 in 1 Std. -
Mi, 22.01. 13:20 keine Meldung -
Mi, 22.01. 13:10 keine Meldung -
Mi, 22.01. 13:00 0.1 l/m2 in 1 Std. Sprühregen
Mi, 22.01. 12:30 0.1 l/m2 in 1 Std. Regenschauer
Mi, 22.01. 12:00 0.0 l/m2 in 1 Std. -
Mi, 22.01. 11:30 0.0 l/m2 in 1 Std. -
Mi, 22.01. 11:00 0.1 l/m2 in 1 Std. Sprühregen
Ortszeit Stärke Spitze Richtung
km/h Bft. km/h Grad Sektor
Mi, 22.01. 13:00 22 4 33 230° SW
Mi, 22.01. 7:00 7 2 22 260° W
Mi, 22.01. 1:00 7 2 29 240° SW
Di, 21.01. 19:00 6 1 30 230° SW
Di, 21.01. 13:00 14 3 25 230° SW
Di, 21.01. 7:00 9 2 17 230° SW
Di, 21.01. 1:00 7 2 11 220° SW
Mo, 20.01. 19:00 0 0 22 - -
Ortszeit Stärke Spitze Richtung
km/h Bft. km/h Grad Sektor
Mi, 22.01. 14:00 18 3 32 240° SW
Mi, 22.01. 13:50 18 3 - 240° SW
Mi, 22.01. 13:40 18 3 - 240° SW
Mi, 22.01. 13:30 18 3 32 250° W
Mi, 22.01. 13:20 18 3 - 250° W
Mi, 22.01. 13:10 19 3 - 250° W
Mi, 22.01. 13:00 22 4 33 230° SW
Mi, 22.01. 12:30 17 3 26 240° SW
Mi, 22.01. 12:00 14 3 29 230° SW
Mi, 22.01. 11:30 19 3 30 240° SW
Mi, 22.01. 11:00 17 3 28 240° SW
Ortszeit Untergrenze Bedeckung Gattung
total tief tief mittel hoch
Mi, 22.01. 13:00 150 m 8/8 8/8 - - -
Mi, 22.01. 7:00 9000 m 5/8 0/8 - - -
Mi, 22.01. 1:00 10500 m 8/8 0/8 - - -
Di, 21.01. 19:00 - 0/8 0/8 - - -
Di, 21.01. 13:00 - 0/8 0/8 - - -
Di, 21.01. 7:00 - 0/8 0/8 - - -
Di, 21.01. 1:00 - 0/8 0/8 - - -
Mo, 20.01. 19:00 9000 m 0/8 0/8 - - -
Ortszeit Bedeckungsgrad in Achtel und Wolkenuntergrenze
Mi, 22.01. 14:00 6(150m) 8(240m)
Mi, 22.01. 13:50 6(150m) 8(240m)
Mi, 22.01. 13:40 7(180m)
Mi, 22.01. 13:30 6(150m) 8(270m)
Mi, 22.01. 13:20 6(150m) 8(270m)
Mi, 22.01. 13:10 5(150m) 8(300m)
Mi, 22.01. 13:00 2(150m) 8(300m)
Mi, 22.01. 12:30 7(150m) 8(270m)
Mi, 22.01. 12:00 7(150m)
Mi, 22.01. 11:30 8(210m)
Mi, 22.01. 11:00 8(210m)
Ortszeit Luftdruck NN (hPa) Tendenz (hPa in 3 Std.)
Mi, 22.01. 13:00 1034 0,0
Mi, 22.01. 7:00 1034 - 1,3
Mi, 22.01. 1:00 1037 - 1,1
Di, 21.01. 19:00 1040 - 0,7
Di, 21.01. 13:00 1042 - 1,1
Di, 21.01. 7:00 1044 - 0,9
Di, 21.01. 1:00 1046 - 0,9
Mo, 20.01. 19:00 1048 + 0,1
Ortszeit Luftdruck NN (hPa) Tendenz (hPa in 3 Std.)
Mi, 22.01. 14:00 1033 - 0,8
Mi, 22.01. 13:50 1033 keine Meldung
Mi, 22.01. 13:40 1034 keine Meldung
Mi, 22.01. 13:30 1034 - 0,7
Mi, 22.01. 13:20 1034 keine Meldung
Mi, 22.01. 13:10 1034 keine Meldung
Mi, 22.01. 13:00 1034 0,0
Mi, 22.01. 12:30 1034 - 0,6
Mi, 22.01. 12:00 1034 - 0,3
Mi, 22.01. 11:30 1034 - 0,4
Mi, 22.01. 11:00 1034 - 0,3
Ortszeit Schneehöhe (cm)
Mi, 22.01. 13:00 0
Mi, 22.01. 7:00 0
Mi, 22.01. 1:00 0
Di, 21.01. 19:00 0
Di, 21.01. 13:00 0
Di, 21.01. 7:00 0
Di, 21.01. 1:00 0
Mo, 20.01. 19:00 0
Ortszeit Schneehöhe (cm)
Mi, 22.01. 14:00 0
Mi, 22.01. 13:50 0
Mi, 22.01. 13:40 0
Mi, 22.01. 13:30 0
Mi, 22.01. 13:20 0
Mi, 22.01. 13:10 0
Mi, 22.01. 13:00 0
Mi, 22.01. 12:30 0
Mi, 22.01. 12:00 0
Mi, 22.01. 11:30 0
Mi, 22.01. 11:00 0
Link zu dieser Seite / Seite empfehlen

Das Wetter in ...